createdAt,value
2022-09-11T00:01:19.672Z,7.78
2022-09-11T00:03:47.336Z,7.70
2022-09-11T00:06:28.555Z,9.20
2022-09-11T00:09:01.676Z,5.10
2022-09-11T00:11:40.759Z,7.35
2022-09-11T00:14:17.406Z,5.68
2022-09-11T00:16:46.288Z,5.35
2022-09-11T00:19:18.919Z,8.45
2022-09-11T00:21:46.955Z,6.07
2022-09-11T00:24:13.853Z,6.68
2022-09-11T00:26:41.180Z,9.32
2022-09-11T00:29:08.672Z,7.45
2022-09-11T00:31:35.869Z,4.95
2022-09-11T00:34:02.933Z,4.50
2022-09-11T00:36:31.764Z,4.55
2022-09-11T00:39:00.192Z,5.18
2022-09-11T00:41:30.501Z,5.28
2022-09-11T00:44:00.247Z,3.42
2022-09-11T00:46:48.667Z,4.88
2022-09-11T02:51:19.793Z,2.25
2022-09-11T02:53:47.590Z,3.03
2022-09-11T02:56:32.001Z,2.88
2022-09-11T02:59:04.798Z,2.50
2022-09-11T03:01:45.061Z,6.00
2022-09-11T03:04:11.925Z,4.45
2022-09-11T03:06:39.144Z,2.67
2022-09-11T03:09:05.969Z,2.85
2022-09-11T03:11:32.890Z,4.32
2022-09-11T03:13:59.705Z,3.30
2022-09-11T03:16:26.548Z,1.92
2022-09-11T03:18:53.429Z,1.75
2022-09-11T03:21:20.271Z,2.38
2022-09-11T03:23:47.392Z,3.15
2022-09-11T03:26:14.217Z,1.70
2022-09-11T03:28:41.032Z,3.50
2022-09-11T03:31:09.871Z,2.45
2022-09-11T03:33:37.411Z,3.72
2022-09-11T03:36:04.640Z,4.30
2022-09-11T03:38:31.550Z,2.08
2022-09-11T03:40:58.565Z,3.88
2022-09-11T03:43:25.544Z,3.58
2022-09-11T03:45:52.532Z,4.53
2022-09-11T03:48:19.553Z,2.75
2022-09-11T03:50:47.779Z,1.48
2022-09-11T03:53:15.281Z,3.15
2022-09-11T03:55:42.137Z,2.58
2022-09-11T03:58:09.769Z,1.70
2022-09-11T04:00:36.753Z,2.63
2022-09-11T04:03:03.642Z,2.42
2022-09-11T04:05:30.587Z,1.42
2022-09-11T04:07:57.413Z,1.48
2022-09-11T04:10:24.236Z,1.00
2022-09-11T04:12:51.079Z,2.88
2022-09-11T04:15:17.902Z,2.55
2022-09-11T04:17:44.761Z,1.55
2022-09-11T04:20:11.627Z,3.38
2022-09-11T04:22:39.364Z,1.42
2022-09-11T04:25:07.199Z,3.17
2022-09-11T04:27:34.861Z,2.45
2022-09-11T04:30:01.721Z,3.47
2022-09-11T04:32:29.306Z,1.33
2022-09-11T04:34:56.371Z,2.55
2022-09-11T04:37:23.216Z,3.05
2022-09-11T04:39:50.067Z,2.10
2022-09-11T04:42:16.951Z,3.03
2022-09-11T04:44:43.791Z,2.33
2022-09-11T04:47:10.688Z,2.42
2022-09-11T04:49:37.567Z,1.48
2022-09-11T04:52:06.193Z,2.42
2022-09-11T04:54:37.239Z,1.73
2022-09-11T04:57:04.371Z,2.17
2022-09-11T04:59:31.284Z,3.47
2022-09-11T05:01:58.137Z,1.45
2022-09-11T05:04:26.414Z,1.65
2022-09-11T05:06:53.519Z,1.77
2022-09-11T05:09:20.687Z,2.88
2022-09-11T05:11:48.183Z,1.63
2022-09-11T05:14:15.352Z,3.55
2022-09-11T05:16:43.791Z,2.22
2022-09-11T05:19:10.968Z,1.58
2022-09-11T05:21:38.006Z,2.28
2022-09-11T05:24:05.010Z,1.17
2022-09-11T05:26:34.760Z,1.58
2022-09-11T05:29:09.232Z,0.98
2022-09-11T05:31:37.412Z,1.42
2022-09-11T05:34:06.032Z,2.97
2022-09-11T05:36:36.110Z,1.20
2022-09-11T05:39:03.936Z,0.80
2022-09-11T05:41:30.945Z,1.95
2022-09-11T05:43:58.870Z,1.50
2022-09-11T05:46:26.088Z,1.58
2022-09-11T05:48:53.678Z,1.10
2022-09-11T05:51:21.826Z,2.70
2022-09-11T05:53:53.195Z,0.95
2022-09-11T05:56:22.561Z,1.20
2022-09-11T05:58:51.798Z,2.22
2022-09-11T06:01:21.108Z,6.53
2022-09-11T06:03:49.377Z,1.05
2022-09-11T06:06:18.372Z,9.55
2022-09-11T06:08:45.619Z,1.55
2022-09-11T06:11:14.316Z,4.85
2022-09-11T06:13:43.261Z,3.72
2022-09-11T06:16:19.170Z,2.25
2022-09-11T06:21:20.364Z,1.90
2022-09-11T06:23:49.071Z,1.13
2022-09-11T06:26:18.147Z,1.92
2022-09-11T06:28:45.220Z,1.63
2022-09-11T06:31:16.377Z,0.77
2022-09-11T06:33:44.194Z,3.85
2022-09-11T06:36:19.788Z,4.75
2022-09-11T06:38:47.352Z,1.35
2022-09-11T06:41:16.620Z,1.88
2022-09-11T06:43:44.446Z,2.75
2022-09-11T06:46:22.667Z,2.47
2022-09-11T06:48:50.959Z,1.63
2022-09-11T06:51:23.266Z,2.53
2022-09-11T06:54:02.216Z,4.18
2022-09-11T06:56:32.318Z,0.90
2022-09-11T06:58:59.385Z,1.67
2022-09-11T07:01:27.002Z,1.10
2022-09-11T07:03:54.793Z,2.13
2022-09-11T07:06:25.064Z,4.03
2022-09-11T07:09:00.988Z,3.55
2022-09-11T07:11:34.611Z,4.88
2022-09-11T07:14:05.803Z,3.10
2022-09-11T07:16:33.328Z,2.88
2022-09-11T07:19:00.513Z,2.97
2022-09-11T07:21:28.369Z,2.40
2022-09-11T07:23:57.780Z,3.58
2022-09-11T07:26:27.187Z,2.05
2022-09-11T07:28:56.023Z,2.25
2022-09-11T07:31:29.429Z,7.22
2022-09-11T07:33:57.145Z,1.92
2022-09-11T07:36:29.260Z,2.70
2022-09-11T07:38:57.554Z,4.03
2022-09-11T07:41:26.288Z,4.53
2022-09-11T07:43:55.849Z,6.82
2022-09-11T07:46:24.556Z,5.00
2022-09-11T07:48:51.550Z,4.85
2022-09-11T07:51:19.188Z,1.95
2022-09-11T07:53:54.397Z,3.78
2022-09-11T07:56:24.036Z,4.57
2022-09-11T07:58:52.517Z,2.42
2022-09-11T08:01:25.859Z,2.10
2022-09-11T08:04:07.404Z,6.88
2022-09-11T08:06:36.477Z,5.05
2022-09-11T08:09:06.866Z,3.80
2022-09-11T08:11:38.405Z,3.63
2022-09-11T08:14:07.444Z,3.00
2022-09-11T08:16:36.373Z,3.85
2022-09-11T08:19:04.273Z,3.05
2022-09-11T08:21:31.608Z,4.50
2022-09-11T08:23:58.719Z,6.35
2022-09-11T08:26:28.530Z,6.72
2022-09-11T08:28:56.841Z,5.63
2022-09-11T08:31:26.464Z,4.07
2022-09-11T08:33:54.468Z,5.05
2022-09-11T08:36:23.064Z,5.20
2022-09-11T08:38:52.599Z,3.28
2022-09-11T08:41:44.052Z,4.35
2022-09-11T08:44:47.773Z,3.88
2022-09-11T08:47:28.107Z,5.43
2022-09-11T08:50:28.108Z,5.15
2022-09-11T08:52:56.645Z,5.35
2022-09-11T08:55:44.838Z,6.05
2022-09-11T08:58:19.419Z,5.53
2022-09-11T09:00:52.211Z,4.30
2022-09-11T09:03:48.568Z,4.70
2022-09-11T09:06:33.586Z,4.00
2022-09-11T09:09:18.532Z,4.65
2022-09-11T09:11:45.317Z,6.93
2022-09-11T09:14:34.051Z,5.32
2022-09-11T09:17:19.486Z,7.60
2022-09-11T09:19:55.763Z,3.05
2022-09-11T09:22:37.036Z,6.97
2022-09-11T09:25:10.068Z,3.25
2022-09-11T09:28:03.448Z,2.92
2022-09-11T09:30:40.838Z,3.67
2022-09-11T09:33:52.073Z,2.45
2022-09-11T09:36:20.991Z,1.90
2022-09-11T09:38:48.961Z,4.05
2022-09-11T09:41:31.815Z,2.58
2022-09-11T09:43:58.587Z,2.33
2022-09-11T09:46:48.752Z,4.00
2022-09-11T09:49:23.313Z,2.53
2022-09-11T09:51:51.830Z,2.08
2022-09-11T09:54:22.958Z,2.83
2022-09-11T09:56:59.211Z,2.15
2022-09-11T09:59:43.206Z,1.65
2022-09-11T10:02:10.263Z,1.17
2022-09-11T10:04:37.200Z,1.20
2022-09-11T10:07:19.296Z,2.28
2022-09-11T10:09:54.766Z,3.28
2022-09-11T10:12:28.058Z,3.40
2022-09-11T10:15:04.753Z,1.92
2022-09-11T10:17:38.691Z,3.17
2022-09-11T10:20:23.593Z,1.63
2022-09-11T10:22:52.035Z,4.85
2022-09-11T10:25:30.130Z,1.20
2022-09-11T10:28:11.331Z,3.47
2022-09-11T10:30:41.678Z,3.00
2022-09-11T10:33:31.689Z,2.15
2022-09-11T10:36:00.497Z,2.42
2022-09-11T10:38:36.998Z,2.08
2022-09-11T10:41:13.899Z,2.88
2022-09-11T10:43:50.252Z,2.15
2022-09-11T10:46:39.153Z,4.90
2022-09-11T10:49:06.023Z,1.88
2022-09-11T10:51:42.186Z,4.07
2022-09-11T10:54:22.297Z,2.25
2022-09-11T10:57:13.314Z,2.22
2022-09-11T11:00:08.570Z,2.42
2022-09-11T11:02:40.134Z,2.42
2022-09-11T11:05:18.209Z,1.85
2022-09-11T11:08:02.704Z,2.05
2022-09-11T11:10:56.202Z,3.00
2022-09-11T11:13:41.941Z,3.60
2022-09-11T11:16:21.311Z,1.33
2022-09-11T11:19:15.440Z,2.42
2022-09-11T11:22:05.662Z,3.03
2022-09-11T11:25:10.206Z,4.90
2022-09-11T11:27:49.392Z,2.70
2022-09-11T11:30:19.619Z,4.53
2022-09-11T11:32:56.050Z,2.30
2022-09-11T11:36:04.064Z,3.80
2022-09-11T11:38:33.719Z,2.83
2022-09-11T11:41:07.893Z,3.13
2022-09-11T11:43:39.222Z,3.33
2022-09-11T11:46:35.564Z,5.45
2022-09-11T11:49:05.910Z,4.88
2022-09-11T11:52:08.487Z,1.17
2022-09-11T11:55:20.848Z,3.67
2022-09-11T11:58:00.638Z,2.63
2022-09-11T12:00:30.049Z,3.03
2022-09-11T12:03:04.338Z,3.33
2022-09-11T12:05:34.169Z,2.55
2022-09-11T12:08:02.044Z,4.75
2022-09-11T12:10:31.776Z,3.38
2022-09-11T12:13:02.210Z,3.33
2022-09-11T12:15:32.301Z,3.03
2022-09-11T12:18:02.323Z,3.92
2022-09-11T12:20:34.552Z,6.00
2022-09-11T12:23:01.922Z,6.22
2022-09-11T12:25:28.720Z,3.75
2022-09-11T12:28:23.927Z,2.15
2022-09-11T12:31:02.713Z,2.22
2022-09-11T12:33:41.679Z,3.50
2022-09-11T12:36:13.228Z,2.70
2022-09-11T12:38:45.456Z,1.92
2022-09-11T12:41:17.429Z,2.97
2022-09-11T12:43:44.297Z,4.38
2022-09-11T12:46:20.380Z,5.97
2022-09-11T12:49:11.233Z,3.30
2022-09-11T12:51:50.139Z,5.50
2022-09-11T12:54:39.804Z,3.58
2022-09-11T12:57:16.252Z,4.20
2022-09-11T12:59:45.758Z,5.00
2022-09-11T13:02:37.093Z,3.50
2022-09-11T13:05:05.761Z,4.82
2022-09-11T13:07:32.580Z,2.90
2022-09-11T13:10:08.145Z,4.35
2022-09-11T13:12:55.963Z,4.72
2022-09-11T13:15:41.193Z,6.20
2022-09-11T13:18:25.953Z,9.40
2022-09-11T13:21:10.046Z,3.47
2022-09-11T13:23:37.863Z,7.15
2022-09-11T13:26:08.108Z,5.03
2022-09-11T13:28:44.787Z,5.70
2022-09-11T13:31:35.891Z,8.80
2022-09-11T13:34:06.908Z,4.18
2022-09-11T13:36:36.196Z,8.00
2022-09-11T13:39:04.902Z,5.82
2022-09-11T13:41:37.567Z,5.03
2022-09-11T13:44:24.214Z,4.07
2022-09-11T13:46:52.528Z,11.45
2022-09-11T13:49:26.686Z,7.45
2022-09-11T13:51:53.718Z,4.32
2022-09-11T13:54:52.279Z,4.35
2022-09-11T13:57:21.939Z,8.13
2022-09-11T14:00:00.423Z,8.23
2022-09-11T14:02:40.788Z,4.72
2022-09-11T14:05:17.729Z,6.63
2022-09-11T14:07:51.960Z,3.17
2022-09-11T14:10:30.839Z,6.53
2022-09-11T14:13:18.717Z,7.45
2022-09-11T14:15:56.401Z,7.28
2022-09-11T14:18:37.211Z,5.22
2022-09-11T14:21:13.685Z,6.60
2022-09-11T14:23:45.023Z,7.45
2022-09-11T14:26:17.118Z,8.77
2022-09-11T14:29:10.056Z,9.88
2022-09-11T14:31:38.563Z,6.30
2022-09-11T14:34:13.213Z,6.95
2022-09-11T14:36:44.304Z,4.93
2022-09-11T14:39:23.691Z,5.55
2022-09-11T14:41:50.922Z,7.72
2022-09-11T14:44:18.186Z,4.93
2022-09-11T14:46:45.128Z,4.88
2022-09-11T14:49:12.781Z,6.22
2022-09-11T14:51:41.081Z,4.25
2022-09-11T14:54:14.831Z,7.95
2022-09-11T14:56:42.652Z,4.75
2022-09-11T14:59:10.251Z,3.47
2022-09-11T15:01:38.842Z,8.60
2022-09-11T15:04:06.990Z,5.28
2022-09-11T15:06:33.880Z,8.05
2022-09-11T15:09:01.673Z,4.72
2022-09-11T15:11:28.649Z,5.75
2022-09-11T15:14:14.808Z,8.48
2022-09-11T15:16:44.253Z,3.63
2022-09-11T15:19:11.586Z,8.95
2022-09-11T15:21:38.896Z,3.67
2022-09-11T15:24:06.829Z,6.93
2022-09-11T15:26:34.949Z,8.38
2022-09-11T15:29:01.829Z,5.38
2022-09-11T15:31:29.399Z,5.00
2022-09-11T15:33:57.185Z,6.15
2022-09-11T15:36:25.951Z,3.67
2022-09-11T15:38:54.174Z,3.55
2022-09-11T15:41:25.356Z,5.75
2022-09-11T15:43:52.260Z,11.85
2022-09-11T15:46:21.085Z,4.45
2022-09-11T15:48:49.325Z,9.77
2022-09-11T15:51:20.323Z,3.92
2022-09-11T15:53:48.521Z,8.43
2022-09-11T15:56:18.253Z,6.88
2022-09-11T15:58:47.899Z,7.13
2022-09-11T16:01:23.894Z,6.20
2022-09-11T16:06:21.989Z,7.30
2022-09-11T16:08:49.126Z,8.98
2022-09-11T16:11:16.772Z,8.45
2022-09-11T16:13:47.908Z,9.13
2022-09-11T16:16:14.878Z,11.48
2022-09-11T16:18:42.740Z,7.80
2022-09-11T16:21:12.977Z,14.10
2022-09-11T16:23:40.883Z,12.40
2022-09-11T16:26:10.705Z,8.32
2022-09-11T16:28:40.056Z,9.05
2022-09-11T16:31:07.961Z,10.10
2022-09-11T16:33:44.305Z,5.85
2022-09-11T16:36:17.166Z,6.22
2022-09-11T16:38:45.444Z,7.78
2022-09-11T16:41:16.609Z,6.70
2022-09-11T16:43:46.563Z,9.00
2022-09-11T16:46:19.152Z,11.38
2022-09-11T16:48:49.444Z,5.93
2022-09-11T16:51:20.926Z,5.80
2022-09-11T16:53:48.132Z,4.53
2022-09-11T16:56:17.998Z,8.43
2022-09-11T16:58:45.665Z,9.25
2022-09-11T17:01:15.454Z,11.43
2022-09-11T17:03:44.310Z,11.10
2022-09-11T17:06:11.933Z,11.43
2022-09-11T17:08:39.350Z,12.52
2022-09-11T17:11:09.782Z,11.65
2022-09-11T17:13:37.032Z,8.55
2022-09-11T17:16:16.193Z,6.95
2022-09-11T17:18:53.504Z,12.23
2022-09-11T17:21:24.084Z,12.45
2022-09-11T17:23:53.513Z,11.95
2022-09-11T17:26:20.588Z,5.72
2022-09-11T17:28:49.173Z,14.27
2022-09-11T17:31:19.217Z,8.75
2022-09-11T17:33:48.049Z,9.70
2022-09-11T17:36:17.755Z,12.45
2022-09-11T17:38:48.373Z,14.57
2022-09-11T17:41:16.490Z,10.63
2022-09-11T17:43:43.677Z,18.17
2022-09-11T17:46:13.155Z,7.80
2022-09-11T17:48:40.688Z,8.50
2022-09-11T17:51:16.676Z,15.00
2022-09-11T17:53:48.025Z,9.60
2022-09-11T17:56:18.144Z,10.38
2022-09-11T17:58:45.474Z,8.77
2022-09-11T18:01:16.803Z,8.80
2022-09-11T18:03:49.218Z,17.13
2022-09-11T18:06:21.303Z,13.88
2022-09-11T18:08:48.248Z,10.20
2022-09-11T18:11:15.227Z,7.22
2022-09-11T18:13:42.815Z,15.40
2022-09-11T18:16:11.748Z,12.30
2022-09-11T18:18:42.889Z,13.55
2022-09-11T18:21:11.311Z,10.27
2022-09-11T18:23:39.996Z,9.27
2022-09-11T18:26:07.373Z,11.82
2022-09-11T18:28:34.804Z,14.05
2022-09-11T18:31:05.656Z,14.60
2022-09-11T18:33:33.542Z,11.80
2022-09-11T18:36:05.897Z,12.23
2022-09-11T18:38:33.376Z,10.45
2022-09-11T18:41:00.762Z,15.73
2022-09-11T18:43:28.665Z,12.63
2022-09-11T18:45:55.929Z,11.77
2022-09-11T18:48:23.013Z,21.27
2022-09-11T18:50:50.364Z,11.02
2022-09-11T18:53:17.969Z,9.88
2022-09-11T18:55:44.968Z,14.80
2022-09-11T18:58:12.106Z,15.35
2022-09-11T19:00:40.499Z,13.43
2022-09-11T19:03:08.723Z,13.32
2022-09-11T19:05:35.703Z,13.40
2022-09-11T19:08:03.564Z,14.30
2022-09-11T19:10:30.457Z,14.10
2022-09-11T19:12:57.368Z,15.02
2022-09-11T19:15:25.214Z,9.25
2022-09-11T19:17:55.281Z,12.00
2022-09-11T19:20:22.420Z,16.50
2022-09-11T19:22:51.483Z,15.82
2022-09-11T19:25:18.517Z,5.97
2022-09-11T19:27:45.993Z,14.23
2022-09-11T19:30:14.106Z,11.48
2022-09-11T19:32:41.549Z,16.15
2022-09-11T19:35:08.562Z,12.88
2022-09-11T19:37:35.468Z,14.48
2022-09-11T19:40:02.704Z,15.60
2022-09-11T19:42:30.352Z,10.88
2022-09-11T19:44:57.213Z,18.50
2022-09-11T19:47:25.636Z,12.75
2022-09-11T19:49:52.989Z,12.45
2022-09-11T19:52:21.711Z,8.60
2022-09-11T19:54:48.693Z,14.95
2022-09-11T19:57:15.650Z,11.85
2022-09-11T19:59:42.969Z,8.60
2022-09-11T20:02:11.136Z,10.18
2022-09-11T20:04:38.074Z,8.02
2022-09-11T20:07:05.528Z,12.52
2022-09-11T20:09:33.051Z,11.77
2022-09-11T20:12:01.433Z,10.00
2022-09-11T20:14:30.222Z,14.95
2022-09-11T20:16:57.144Z,15.25
2022-09-11T20:19:24.090Z,8.77
2022-09-11T20:21:50.984Z,10.15
2022-09-11T20:24:17.980Z,14.98
2022-09-11T20:26:44.869Z,12.38
2022-09-11T20:29:16.011Z,9.82
2022-09-11T20:31:48.842Z,9.77
2022-09-11T20:34:20.188Z,11.57
2022-09-11T20:36:47.721Z,9.38
2022-09-11T20:39:15.616Z,10.02
2022-09-11T20:41:43.053Z,18.17
2022-09-11T20:44:11.770Z,11.65
2022-09-11T20:46:38.684Z,9.35
2022-09-11T20:49:05.698Z,14.40
2022-09-11T20:51:34.278Z,8.88
2022-09-11T20:54:01.391Z,9.98
2022-09-11T20:56:28.377Z,12.18
2022-09-11T20:58:56.487Z,12.30
2022-09-11T21:01:25.856Z,15.50
2022-09-11T21:03:54.974Z,9.55
2022-09-11T21:06:26.318Z,14.00
2022-09-11T21:08:59.082Z,10.27
2022-09-11T21:11:27.903Z,13.57
2022-09-11T21:13:55.141Z,10.98
2022-09-11T21:16:22.235Z,12.63
2022-09-11T21:18:54.034Z,9.45
2022-09-11T21:21:22.543Z,16.30
2022-09-11T21:23:49.653Z,9.57
2022-09-11T21:26:17.946Z,18.55
2022-09-11T21:28:45.085Z,13.15
2022-09-11T21:31:13.103Z,9.02
2022-09-11T21:33:40.389Z,9.55
2022-09-11T21:36:07.768Z,8.95
2022-09-11T21:38:36.169Z,11.80
2022-09-11T21:41:05.594Z,7.82
2022-09-11T21:43:32.572Z,6.22
2022-09-11T21:45:59.499Z,4.95
2022-09-11T21:48:26.408Z,3.22
2022-09-11T21:50:53.787Z,5.15
2022-09-11T21:53:21.168Z,4.80
2022-09-11T21:55:51.176Z,4.03
2022-09-11T21:58:21.205Z,4.72
2022-09-11T22:00:49.144Z,3.67
2022-09-11T22:03:18.590Z,3.65
2022-09-11T22:05:49.246Z,4.50
2022-09-11T22:08:18.258Z,5.15
2022-09-11T22:10:50.896Z,2.25
2022-09-11T22:13:19.770Z,2.40
2022-09-11T22:15:48.757Z,2.78
2022-09-11T22:18:17.442Z,3.40
2022-09-11T22:20:44.401Z,4.50
2022-09-11T22:23:17.319Z,5.93
2022-09-11T22:25:45.446Z,6.85
2022-09-11T22:28:12.693Z,6.57
2022-09-11T22:30:43.625Z,5.35
2022-09-11T22:33:11.229Z,7.22
2022-09-11T22:35:38.282Z,5.10
2022-09-11T22:38:05.248Z,5.15
2022-09-11T22:40:32.129Z,5.18
2022-09-11T22:42:59.009Z,12.75
2022-09-11T22:45:26.103Z,7.90
2022-09-11T22:47:52.995Z,9.15
2022-09-11T22:50:20.129Z,7.43
2022-09-11T22:52:47.084Z,7.32
2022-09-11T22:55:14.093Z,6.45
2022-09-11T22:57:41.096Z,10.05
2022-09-11T23:00:11.919Z,9.80
2022-09-11T23:02:39.149Z,8.73
2022-09-11T23:05:25.796Z,11.68
2022-09-11T23:07:53.744Z,11.85
2022-09-11T23:10:23.750Z,8.45
2022-09-11T23:12:54.777Z,10.90
2022-09-11T23:15:21.824Z,16.13
2022-09-11T23:17:48.760Z,6.43
2022-09-11T23:20:15.765Z,9.25
2022-09-11T23:22:42.664Z,7.72
2022-09-11T23:25:11.232Z,9.65
2022-09-11T23:27:38.382Z,8.77
2022-09-11T23:30:06.001Z,7.50
2022-09-11T23:32:32.927Z,8.57
2022-09-11T23:34:59.849Z,9.18
2022-09-11T23:37:26.811Z,10.15
2022-09-11T23:39:53.858Z,6.85
2022-09-11T23:42:20.942Z,10.60
2022-09-11T23:44:48.218Z,7.90
2022-09-11T23:47:15.158Z,11.65
2022-09-11T23:49:43.594Z,11.88
2022-09-11T23:52:10.712Z,7.97
2022-09-11T23:54:37.753Z,5.68
2022-09-11T23:57:05.732Z,9.65
2022-09-11T23:59:35.855Z,5.72
